sensor_id;sensor_type;location;lat;lon;timestamp;pressure;altitude;pressure_sealevel;temperature;humidity
6032;BME280;3044;43.232;27.972;2024-03-08T00:02:35;45218.53;;;-143.84;92.44
6032;BME280;3044;43.232;27.972;2024-03-08T00:05:03;45212.84;;;-143.84;92.49
6032;BME280;3044;43.232;27.972;2024-03-08T00:07:30;45203.31;;;-143.84;92.20
6032;BME280;3044;43.232;27.972;2024-03-08T00:09:58;45218.53;;;-143.84;92.43
6032;BME280;3044;43.232;27.972;2024-03-08T00:12:26;45201.41;;;-143.84;91.70
6032;BME280;3044;43.232;27.972;2024-03-08T00:14:54;45218.53;;;-143.84;91.29
6032;BME280;3044;43.232;27.972;2024-03-08T00:17:21;45197.59;;;-143.84;91.09
6032;BME280;3044;43.232;27.972;2024-03-08T00:19:49;45209.03;;;-143.84;91.68
6032;BME280;3044;43.232;27.972;2024-03-08T00:22:16;45229.97;;;-143.84;91.77
6032;BME280;3044;43.232;27.972;2024-03-08T00:24:43;45201.41;;;-143.84;91.26
6032;BME280;3044;43.232;27.972;2024-03-08T00:27:11;45205.22;;;-143.84;90.86
6032;BME280;3044;43.232;27.972;2024-03-08T00:29:39;45231.88;;;-143.84;91.32
6032;BME280;3044;43.232;27.972;2024-03-08T00:32:06;45184.25;;;-143.84;91.32
6032;BME280;3044;43.232;27.972;2024-03-08T00:34:35;45226.16;;;-143.84;91.60
6032;BME280;3044;43.232;27.972;2024-03-08T00:37:03;45214.72;;;-143.84;91.27
6032;BME280;3044;43.232;27.972;2024-03-08T00:39:30;45197.59;;;-143.84;91.21
6032;BME280;3044;43.232;27.972;2024-03-08T00:41:58;45212.84;;;-143.84;91.54
6032;BME280;3044;43.232;27.972;2024-03-08T00:44:25;45201.41;;;-143.84;91.72
6032;BME280;3044;43.232;27.972;2024-03-08T00:46:54;45229.97;;;-143.84;91.53
6032;BME280;3044;43.232;27.972;2024-03-08T00:49:21;45197.59;;;-143.84;91.21
6032;BME280;3044;43.232;27.972;2024-03-08T00:51:48;45197.59;;;-143.84;91.80
6032;BME280;3044;43.232;27.972;2024-03-08T00:54:15;45224.25;;;-143.84;91.16
6032;BME280;3044;43.232;27.972;2024-03-08T00:56:42;45209.03;;;-143.84;91.23
6032;BME280;3044;43.232;27.972;2024-03-08T00:59:11;45209.03;;;-143.84;90.92
6032;BME280;3044;43.232;27.972;2024-03-08T01:01:40;45224.25;;;-143.84;90.57
6032;BME280;3044;43.232;27.972;2024-03-08T01:04:08;45197.59;;;-143.84;90.73
6032;BME280;3044;43.232;27.972;2024-03-08T01:06:35;45214.72;;;-143.84;91.06
6032;BME280;3044;43.232;27.972;2024-03-08T01:09:03;45197.59;;;-143.84;90.47
6032;BME280;3044;43.232;27.972;2024-03-08T01:11:32;45207.13;;;-143.84;90.72
6032;BME280;3044;43.232;27.972;2024-03-08T01:13:59;45195.69;;;-143.84;90.64
6032;BME280;3044;43.232;27.972;2024-03-08T01:16:27;45205.22;;;-143.84;90.50
6032;BME280;3044;43.232;27.972;2024-03-08T01:18:54;45243.31;;;-143.84;90.31
6032;BME280;3044;43.232;27.972;2024-03-08T01:21:22;45193.78;;;-143.84;89.72
6032;BME280;3044;43.232;27.972;2024-03-08T01:23:49;45195.69;;;-143.84;90.04
6032;BME280;3044;43.232;27.972;2024-03-08T01:26:17;45203.31;;;-143.84;90.14
6032;BME280;3044;43.232;27.972;2024-03-08T01:28:44;45224.25;;;-143.84;89.79
6032;BME280;3044;43.232;27.972;2024-03-08T01:31:11;45186.16;;;-143.84;89.75
6032;BME280;3044;43.232;27.972;2024-03-08T01:33:39;45216.63;;;-143.84;89.42
6032;BME280;3044;43.232;27.972;2024-03-08T01:36:07;45205.22;;;-143.84;90.00
6032;BME280;3044;43.232;27.972;2024-03-08T01:38:35;45216.63;;;-143.84;90.15
6032;BME280;3044;43.232;27.972;2024-03-08T01:41:03;45209.03;;;-143.84;90.31
6032;BME280;3044;43.232;27.972;2024-03-08T01:43:30;45224.25;;;-143.84;90.48
6032;BME280;3044;43.232;27.972;2024-03-08T01:45:58;45226.16;;;-143.84;90.15
6032;BME280;3044;43.232;27.972;2024-03-08T01:48:26;45222.34;;;-143.84;90.49
6032;BME280;3044;43.232;27.972;2024-03-08T01:50:55;45209.03;;;-143.84;90.56
6032;BME280;3044;43.232;27.972;2024-03-08T01:53:24;45218.53;;;-143.84;90.32
6032;BME280;3044;43.232;27.972;2024-03-08T01:55:55;45199.50;;;-143.84;90.45
6032;BME280;3044;43.232;27.972;2024-03-08T01:58:24;45233.78;;;-143.84;90.39
6032;BME280;3044;43.232;27.972;2024-03-08T02:00:53;45228.06;;;-143.84;90.67
6032;BME280;3044;43.232;27.972;2024-03-08T02:03:20;45228.06;;;-143.84;90.52
6032;BME280;3044;43.232;27.972;2024-03-08T02:05:48;45228.06;;;-143.84;90.63
6032;BME280;3044;43.232;27.972;2024-03-08T02:08:17;45231.88;;;-143.84;90.97
6032;BME280;3044;43.232;27.972;2024-03-08T02:10:45;45207.13;;;-143.84;90.37
6032;BME280;3044;43.232;27.972;2024-03-08T02:13:13;45212.84;;;-143.84;91.06
6032;BME280;3044;43.232;27.972;2024-03-08T02:15:53;45226.16;;;-143.84;90.78
6032;BME280;3044;43.232;27.972;2024-03-08T02:18:21;45243.31;;;-143.84;90.72
6032;BME280;3044;43.232;27.972;2024-03-08T02:20:51;45226.16;;;-143.84;90.58
6032;BME280;3044;43.232;27.972;2024-03-08T02:23:18;45216.63;;;-143.84;90.47
6032;BME280;3044;43.232;27.972;2024-03-08T02:25:46;45186.16;;;-143.84;90.23
6032;BME280;3044;43.232;27.972;2024-03-08T02:28:13;45209.03;;;-143.84;90.00
6032;BME280;3044;43.232;27.972;2024-03-08T02:30:41;45203.31;;;-143.84;90.01
6032;BME280;3044;43.232;27.972;2024-03-08T02:33:08;45205.22;;;-143.84;89.95
6032;BME280;3044;43.232;27.972;2024-03-08T02:35:36;45207.13;;;-143.84;90.49
6032;BME280;3044;43.232;27.972;2024-03-08T02:38:05;45216.63;;;-143.84;90.21
6032;BME280;3044;43.232;27.972;2024-03-08T02:40:32;45247.09;;;-143.84;90.09
6032;BME280;3044;43.232;27.972;2024-03-08T02:42:59;45201.41;;;-143.84;90.29
6032;BME280;3044;43.232;27.972;2024-03-08T02:45:27;45231.88;;;-143.84;90.19
6032;BME280;3044;43.232;27.972;2024-03-08T02:47:54;45224.25;;;-143.84;90.30
6032;BME280;3044;43.232;27.972;2024-03-08T02:50:21;45209.03;;;-143.84;90.30
6032;BME280;3044;43.232;27.972;2024-03-08T02:52:48;45218.53;;;-143.84;90.87
6032;BME280;3044;43.232;27.972;2024-03-08T02:55:17;45212.84;;;-143.84;90.76
6032;BME280;3044;43.232;27.972;2024-03-08T02:57:45;45224.25;;;-143.84;90.56
6032;BME280;3044;43.232;27.972;2024-03-08T03:00:13;45231.88;;;-143.84;91.26
6032;BME280;3044;43.232;27.972;2024-03-08T03:02:41;45212.84;;;-143.84;90.48
6032;BME280;3044;43.232;27.972;2024-03-08T03:05:09;45216.63;;;-143.84;90.61
6032;BME280;3044;43.232;27.972;2024-03-08T03:07:37;45216.63;;;-143.84;90.96
6032;BME280;3044;43.232;27.972;2024-03-08T03:10:05;45228.06;;;-143.84;91.35
6032;BME280;3044;43.232;27.972;2024-03-08T03:12:34;45222.34;;;-143.84;91.30
6032;BME280;3044;43.232;27.972;2024-03-08T03:15:01;45209.03;;;-143.84;91.46
6032;BME280;3044;43.232;27.972;2024-03-08T03:17:29;45224.25;;;-143.84;91.45
6032;BME280;3044;43.232;27.972;2024-03-08T03:19:56;45199.50;;;-143.84;91.79
6032;BME280;3044;43.232;27.972;2024-03-08T03:22:23;45222.34;;;-143.84;92.20
6032;BME280;3044;43.232;27.972;2024-03-08T03:24:51;45237.59;;;-143.84;91.97
6032;BME280;3044;43.232;27.972;2024-03-08T03:27:19;45228.06;;;-143.84;92.20
6032;BME280;3044;43.232;27.972;2024-03-08T03:29:47;45233.78;;;-143.84;92.12
6032;BME280;3044;43.232;27.972;2024-03-08T03:32:15;45212.84;;;-143.84;92.46
6032;BME280;3044;43.232;27.972;2024-03-08T03:34:44;45309.94;;;-143.84;92.52
6032;BME280;3044;43.232;27.972;2024-03-08T03:37:11;45231.88;;;-143.84;92.90
6032;BME280;3044;43.232;27.972;2024-03-08T03:39:39;45228.06;;;-143.84;93.34
6032;BME280;3044;43.232;27.972;2024-03-08T03:42:14;45218.53;;;-143.84;93.82
6032;BME280;3044;43.232;27.972;2024-03-08T03:44:43;45231.88;;;-143.84;93.15
6032;BME280;3044;43.232;27.972;2024-03-08T03:47:12;45216.63;;;-143.84;93.79
6032;BME280;3044;43.232;27.972;2024-03-08T03:49:40;45237.59;;;-143.84;93.71
6032;BME280;3044;43.232;27.972;2024-03-08T03:52:07;45199.50;;;-143.84;93.84
6032;BME280;3044;43.232;27.972;2024-03-08T03:54:34;45205.22;;;-143.84;94.13
6032;BME280;3044;43.232;27.972;2024-03-08T03:57:01;45218.53;;;-143.84;93.65
6032;BME280;3044;43.232;27.972;2024-03-08T03:59:29;45237.59;;;-143.84;93.95
6032;BME280;3044;43.232;27.972;2024-03-08T04:01:57;45203.31;;;-143.84;94.16
6032;BME280;3044;43.232;27.972;2024-03-08T04:04:26;45243.31;;;-143.84;94.12
6032;BME280;3044;43.232;27.972;2024-03-08T04:06:53;45189.97;;;-143.84;93.85
6032;BME280;3044;43.232;27.972;2024-03-08T04:09:20;45226.16;;;-143.84;93.90
6032;BME280;3044;43.232;27.972;2024-03-08T04:11:48;45222.34;;;-143.84;93.62
6032;BME280;3044;43.232;27.972;2024-03-08T04:14:15;45220.44;;;-143.84;94.05
6032;BME280;3044;43.232;27.972;2024-03-08T04:16:42;45243.31;;;-143.84;94.05
6032;BME280;3044;43.232;27.972;2024-03-08T04:19:09;45239.50;;;-143.84;94.39
6032;BME280;3044;43.232;27.972;2024-03-08T04:21:38;45216.63;;;-143.84;94.25
6032;BME280;3044;43.232;27.972;2024-03-08T04:24:05;45212.84;;;-143.84;93.91
6032;BME280;3044;43.232;27.972;2024-03-08T04:26:34;45218.53;;;-143.84;95.68
6032;BME280;3044;43.232;27.972;2024-03-08T04:29:01;45229.97;;;-143.84;95.45
6032;BME280;3044;43.232;27.972;2024-03-08T04:31:28;45210.94;;;-143.84;94.56
6032;BME280;3044;43.232;27.972;2024-03-08T04:33:56;45224.25;;;-143.84;94.25
6032;BME280;3044;43.232;27.972;2024-03-08T04:36:24;45249.00;;;-143.84;93.91
6032;BME280;3044;43.232;27.972;2024-03-08T04:38:52;45218.53;;;-143.84;94.25
6032;BME280;3044;43.232;27.972;2024-03-08T04:41:19;45239.50;;;-143.84;94.43
6032;BME280;3044;43.232;27.972;2024-03-08T04:43:46;45205.22;;;-143.84;94.00
6032;BME280;3044;43.232;27.972;2024-03-08T04:46:14;45216.63;;;-143.84;94.62
6032;BME280;3044;43.232;27.972;2024-03-08T04:48:41;45216.63;;;-143.84;94.70
6032;BME280;3044;43.232;27.972;2024-03-08T04:51:09;45228.06;;;-143.84;94.39
6032;BME280;3044;43.232;27.972;2024-03-08T04:53:37;45212.84;;;-143.84;94.88
6032;BME280;3044;43.232;27.972;2024-03-08T04:56:06;45216.63;;;-143.84;94.68
6032;BME280;3044;43.232;27.972;2024-03-08T04:58:35;45205.22;;;-143.84;94.82
6032;BME280;3044;43.232;27.972;2024-03-08T05:01:02;45243.31;;;-143.84;94.69
6032;BME280;3044;43.232;27.972;2024-03-08T05:03:29;45233.78;;;-143.84;95.27
6032;BME280;3044;43.232;27.972;2024-03-08T05:05:57;45231.88;;;-143.84;95.36
6032;BME280;3044;43.232;27.972;2024-03-08T05:08:24;45235.69;;;-143.84;95.43
6032;BME280;3044;43.232;27.972;2024-03-08T05:10:51;45224.25;;;-143.84;95.45
6032;BME280;3044;43.232;27.972;2024-03-08T05:13:20;45207.13;;;-143.84;95.99
6032;BME280;3044;43.232;27.972;2024-03-08T05:15:48;45239.50;;;-143.84;96.03
6032;BME280;3044;43.232;27.972;2024-03-08T05:18:16;45228.06;;;-143.84;96.47
6032;BME280;3044;43.232;27.972;2024-03-08T05:20:43;45229.97;;;-143.84;96.12
6032;BME280;3044;43.232;27.972;2024-03-08T05:23:10;45205.22;;;-143.84;96.60
6032;BME280;3044;43.232;27.972;2024-03-08T05:25:37;45235.69;;;-143.84;96.73
6032;BME280;3044;43.232;27.972;2024-03-08T05:28:05;45231.88;;;-143.84;97.00
6032;BME280;3044;43.232;27.972;2024-03-08T05:30:34;45237.59;;;-143.84;97.21
6032;BME280;3044;43.232;27.972;2024-03-08T05:33:01;45199.50;;;-143.84;96.81
6032;BME280;3044;43.232;27.972;2024-03-08T05:35:29;45207.13;;;-143.84;97.03
6032;BME280;3044;43.232;27.972;2024-03-08T05:37:58;45214.72;;;-143.84;96.66
6032;BME280;3044;43.232;27.972;2024-03-08T05:40:25;45229.97;;;-143.84;97.09
6032;BME280;3044;43.232;27.972;2024-03-08T05:42:52;45201.41;;;-143.84;96.95
6032;BME280;3044;43.232;27.972;2024-03-08T05:45:19;45214.72;;;-143.84;97.27
6032;BME280;3044;43.232;27.972;2024-03-08T05:47:48;45233.78;;;-143.84;97.50
6032;BME280;3044;43.232;27.972;2024-03-08T05:50:17;45256.63;;;-143.84;97.64
6032;BME280;3044;43.232;27.972;2024-03-08T05:52:45;45224.25;;;-143.84;97.68
6032;BME280;3044;43.232;27.972;2024-03-08T05:55:13;45220.44;;;-143.84;97.89
6032;BME280;3044;43.232;27.972;2024-03-08T05:57:41;45247.09;;;-143.84;97.91
6032;BME280;3044;43.232;27.972;2024-03-08T06:00:09;45239.50;;;-143.84;97.89
6032;BME280;3044;43.232;27.972;2024-03-08T06:02:37;45229.97;;;-143.84;97.90
6032;BME280;3044;43.232;27.972;2024-03-08T06:05:09;45216.63;;;-143.84;98.22
6032;BME280;3044;43.232;27.972;2024-03-08T06:07:36;45197.59;;;-143.84;98.24
6032;BME280;3044;43.232;27.972;2024-03-08T06:10:07;45216.63;;;-143.84;98.24
6032;BME280;3044;43.232;27.972;2024-03-08T06:12:35;45250.91;;;-143.84;98.28
6032;BME280;3044;43.232;27.972;2024-03-08T06:15:06;45209.03;;;-143.84;98.51
6032;BME280;3044;43.232;27.972;2024-03-08T06:17:34;45235.69;;;-143.84;98.41
6032;BME280;3044;43.232;27.972;2024-03-08T06:20:02;45195.69;;;-143.84;98.68
6032;BME280;3044;43.232;27.972;2024-03-08T06:22:37;45220.44;;;-143.84;98.35
6032;BME280;3044;43.232;27.972;2024-03-08T06:25:07;45235.69;;;-143.84;98.39
6032;BME280;3044;43.232;27.972;2024-03-08T06:27:34;45205.22;;;-143.84;98.19
6032;BME280;3044;43.232;27.972;2024-03-08T06:30:01;45231.88;;;-143.84;97.61
6032;BME280;3044;43.232;27.972;2024-03-08T06:32:30;45231.88;;;-143.84;98.49
6032;BME280;3044;43.232;27.972;2024-03-08T06:34:58;45228.06;;;-143.84;97.71
6032;BME280;3044;43.232;27.972;2024-03-08T06:37:26;45210.94;;;-143.84;97.67
6032;BME280;3044;43.232;27.972;2024-03-08T06:39:54;45222.34;;;-143.84;97.31
6032;BME280;3044;43.232;27.972;2024-03-08T06:42:21;45237.59;;;-143.84;97.29
6032;BME280;3044;43.232;27.972;2024-03-08T06:44:48;45235.69;;;-143.84;97.45
6032;BME280;3044;43.232;27.972;2024-03-08T06:47:16;45245.19;;;-143.84;97.93
6032;BME280;3044;43.232;27.972;2024-03-08T06:49:43;45214.72;;;-143.84;97.82
6032;BME280;3044;43.232;27.972;2024-03-08T06:52:11;45235.69;;;-143.84;98.01
6032;BME280;3044;43.232;27.972;2024-03-08T06:54:38;45237.59;;;-143.84;97.92
6032;BME280;3044;43.232;27.972;2024-03-08T06:57:07;45226.16;;;-143.84;97.45
6032;BME280;3044;43.232;27.972;2024-03-08T06:59:36;45222.34;;;-143.84;97.68
6032;BME280;3044;43.232;27.972;2024-03-08T07:02:03;45249.00;;;-143.84;97.41
6032;BME280;3044;43.232;27.972;2024-03-08T07:04:30;45228.06;;;-143.84;97.96
6032;BME280;3044;43.232;27.972;2024-03-08T07:06:59;45233.78;;;-143.84;97.50
6032;BME280;3044;43.232;27.972;2024-03-08T07:09:28;45224.25;;;-143.84;97.69
6032;BME280;3044;43.232;27.972;2024-03-08T07:11:55;45218.53;;;-143.84;97.64
6032;BME280;3044;43.232;27.972;2024-03-08T07:14:24;45209.03;;;-143.84;97.92
6032;BME280;3044;43.232;27.972;2024-03-08T07:16:51;45216.63;;;-143.84;98.02
6032;BME280;3044;43.232;27.972;2024-03-08T07:19:18;45216.63;;;-143.84;98.15
6032;BME280;3044;43.232;27.972;2024-03-08T07:21:47;45226.16;;;-143.84;97.89
6032;BME280;3044;43.232;27.972;2024-03-08T07:24:14;45203.31;;;-143.84;97.87
6032;BME280;3044;43.232;27.972;2024-03-08T07:26:58;45233.78;;;-143.84;98.10
6032;BME280;3044;43.232;27.972;2024-03-08T07:29:27;45224.25;;;-143.84;97.86
6032;BME280;3044;43.232;27.972;2024-03-08T07:31:54;45210.94;;;-143.84;97.88
6032;BME280;3044;43.232;27.972;2024-03-08T07:34:34;45241.41;;;-143.84;97.34
6032;BME280;3044;43.232;27.972;2024-03-08T07:37:01;45214.72;;;-143.84;97.58
6032;BME280;3044;43.232;27.972;2024-03-08T07:39:29;45224.25;;;-143.84;97.26
6032;BME280;3044;43.232;27.972;2024-03-08T07:41:57;45224.25;;;-143.84;97.05
6032;BME280;3044;43.232;27.972;2024-03-08T07:44:24;45201.41;;;-143.84;97.72
6032;BME280;3044;43.232;27.972;2024-03-08T07:46:53;45210.94;;;-143.84;97.57
6032;BME280;3044;43.232;27.972;2024-03-08T07:49:20;45233.78;;;-143.84;97.04
6032;BME280;3044;43.232;27.972;2024-03-08T07:51:47;45178.56;;;-143.84;97.43
6032;BME280;3044;43.232;27.972;2024-03-08T07:54:14;45216.63;;;-143.84;97.22
6032;BME280;3044;43.232;27.972;2024-03-08T07:56:42;45226.16;;;-143.84;97.14
6032;BME280;3044;43.232;27.972;2024-03-08T07:59:09;45210.94;;;-143.84;96.92
6032;BME280;3044;43.232;27.972;2024-03-08T08:01:37;45220.44;;;-143.84;96.78
6032;BME280;3044;43.232;27.972;2024-03-08T08:04:06;45222.34;;;-143.84;96.85
6032;BME280;3044;43.232;27.972;2024-03-08T08:06:38;45231.88;;;-143.84;97.27
6032;BME280;3044;43.232;27.972;2024-03-08T08:09:07;45243.31;;;-143.84;96.98
6032;BME280;3044;43.232;27.972;2024-03-08T08:11:40;45195.69;;;-143.84;96.84
6032;BME280;3044;43.232;27.972;2024-03-08T08:14:09;45207.13;;;-143.84;96.98
6032;BME280;3044;43.232;27.972;2024-03-08T08:16:36;45201.41;;;-143.84;96.53
6032;BME280;3044;43.232;27.972;2024-03-08T08:19:03;45220.44;;;-143.84;96.02
6032;BME280;3044;43.232;27.972;2024-03-08T08:21:35;45222.34;;;-143.84;96.03
6032;BME280;3044;43.232;27.972;2024-03-08T08:24:02;45174.75;;;-143.84;96.32
6032;BME280;3044;43.232;27.972;2024-03-08T08:26:30;45228.06;;;-143.84;97.07
6032;BME280;3044;43.232;27.972;2024-03-08T08:28:58;45214.72;;;-143.84;97.09
6032;BME280;3044;43.232;27.972;2024-03-08T08:31:26;45216.63;;;-143.84;96.70
6032;BME280;3044;43.232;27.972;2024-03-08T08:33:53;45212.84;;;-143.84;96.11
6032;BME280;3044;43.232;27.972;2024-03-08T08:36:24;45243.31;;;-143.84;96.67
6032;BME280;3044;43.232;27.972;2024-03-08T08:38:52;45220.44;;;-143.84;96.92
6032;BME280;3044;43.232;27.972;2024-03-08T08:41:19;45209.03;;;-143.84;96.70
6032;BME280;3044;43.232;27.972;2024-03-08T08:43:47;45245.19;;;-143.84;96.44
6032;BME280;3044;43.232;27.972;2024-03-08T08:46:17;45214.72;;;-143.84;96.96
6032;BME280;3044;43.232;27.972;2024-03-08T08:48:44;45193.78;;;-143.84;96.97
6032;BME280;3044;43.232;27.972;2024-03-08T08:51:12;45207.13;;;-143.84;97.14
6032;BME280;3044;43.232;27.972;2024-03-08T08:53:39;45235.69;;;-143.84;96.96
6032;BME280;3044;43.232;27.972;2024-03-08T08:56:09;45209.03;;;-143.84;96.98
6032;BME280;3044;43.232;27.972;2024-03-08T08:58:38;45212.84;;;-143.84;96.81
6032;BME280;3044;43.232;27.972;2024-03-08T09:01:06;45214.72;;;-143.84;96.78
6032;BME280;3044;43.232;27.972;2024-03-08T09:03:35;45237.59;;;-143.84;96.91
6032;BME280;3044;43.232;27.972;2024-03-08T09:06:03;45220.44;;;-143.84;96.60
6032;BME280;3044;43.232;27.972;2024-03-08T09:08:30;45243.31;;;-143.84;96.70
6032;BME280;3044;43.232;27.972;2024-03-08T09:10:58;45210.94;;;-143.84;96.60
6032;BME280;3044;43.232;27.972;2024-03-08T09:13:27;45191.88;;;-143.84;96.66
6032;BME280;3044;43.232;27.972;2024-03-08T09:15:54;45226.16;;;-143.84;96.88
6032;BME280;3044;43.232;27.972;2024-03-08T09:18:21;45195.69;;;-143.84;97.09
6032;BME280;3044;43.232;27.972;2024-03-08T09:20:49;45224.25;;;-143.84;96.84
6032;BME280;3044;43.232;27.972;2024-03-08T09:23:19;45201.41;;;-143.84;97.16
6032;BME280;3044;43.232;27.972;2024-03-08T09:25:46;45209.03;;;-143.84;96.67
6032;BME280;3044;43.232;27.972;2024-03-08T09:28:14;45235.69;;;-143.84;96.74
6032;BME280;3044;43.232;27.972;2024-03-08T09:30:43;45210.94;;;-143.84;96.98
6032;BME280;3044;43.232;27.972;2024-03-08T09:33:10;45212.84;;;-143.84;96.54
6032;BME280;3044;43.232;27.972;2024-03-08T09:35:37;45199.50;;;-143.84;96.60
6032;BME280;3044;43.232;27.972;2024-03-08T09:38:04;45235.69;;;-143.84;96.24
6032;BME280;3044;43.232;27.972;2024-03-08T09:40:34;45220.44;;;-143.84;96.30
6032;BME280;3044;43.232;27.972;2024-03-08T09:43:01;45209.03;;;-143.84;95.83
6032;BME280;3044;43.232;27.972;2024-03-08T09:45:31;45224.25;;;-143.84;95.79
6032;BME280;3044;43.232;27.972;2024-03-08T09:48:04;45228.06;;;-143.84;95.73
6032;BME280;3044;43.232;27.972;2024-03-08T09:50:32;45201.41;;;-143.84;95.11
6032;BME280;3044;43.232;27.972;2024-03-08T09:53:03;45201.41;;;-143.84;95.51
6032;BME280;3044;43.232;27.972;2024-03-08T09:55:34;45220.44;;;-143.84;94.95
6032;BME280;3044;43.232;27.972;2024-03-08T09:58:05;45210.94;;;-143.84;95.33
6032;BME280;3044;43.232;27.972;2024-03-08T10:00:58;45222.34;;;-143.84;94.93
6032;BME280;3044;43.232;27.972;2024-03-08T10:03:29;45212.84;;;-143.84;95.35
6032;BME280;3044;43.232;27.972;2024-03-08T10:05:56;45235.69;;;-143.84;95.31
6032;BME280;3044;43.232;27.972;2024-03-08T10:08:26;45220.44;;;-143.84;94.54
6032;BME280;3044;43.232;27.972;2024-03-08T10:10:55;45197.59;;;-143.84;95.32
6032;BME280;3044;43.232;27.972;2024-03-08T10:13:25;45218.53;;;-143.84;94.99
6032;BME280;3044;43.232;27.972;2024-03-08T10:15:53;45224.25;;;-143.84;94.33
6032;BME280;3044;43.232;27.972;2024-03-08T10:18:21;45197.59;;;-143.84;94.53
6032;BME280;3044;43.232;27.972;2024-03-08T10:21:03;45203.31;;;-143.84;94.40
6032;BME280;3044;43.232;27.972;2024-03-08T10:23:33;45199.50;;;-143.84;93.71
6032;BME280;3044;43.232;27.972;2024-03-08T10:26:10;45201.41;;;-143.84;94.48
6032;BME280;3044;43.232;27.972;2024-03-08T10:28:41;45231.88;;;-143.84;94.80
6032;BME280;3044;43.232;27.972;2024-03-08T10:31:08;45186.16;;;-143.84;94.74
6032;BME280;3044;43.232;27.972;2024-03-08T10:33:36;45214.72;;;-143.84;94.82
6032;BME280;3044;43.232;27.972;2024-03-08T10:36:08;45199.50;;;-143.84;94.64
6032;BME280;3044;43.232;27.972;2024-03-08T10:38:36;45218.53;;;-143.84;93.67
6032;BME280;3044;43.232;27.972;2024-03-08T10:41:05;45203.31;;;-143.84;93.62
6032;BME280;3044;43.232;27.972;2024-03-08T10:43:41;45203.31;;;-143.84;93.03
6032;BME280;3044;43.232;27.972;2024-03-08T10:46:17;45201.41;;;-143.84;92.37
6032;BME280;3044;43.232;27.972;2024-03-08T10:48:50;45210.94;;;-143.84;92.02
6032;BME280;3044;43.232;27.972;2024-03-08T10:51:20;45205.22;;;-143.84;91.25
6032;BME280;3044;43.232;27.972;2024-03-08T10:53:49;45214.72;;;-143.84;91.54
6032;BME280;3044;43.232;27.972;2024-03-08T10:56:17;45228.06;;;-143.84;91.56
6032;BME280;3044;43.232;27.972;2024-03-08T10:58:44;45220.44;;;-143.84;91.68
6032;BME280;3044;43.232;27.972;2024-03-08T11:01:13;45199.50;;;-143.84;91.26
6032;BME280;3044;43.232;27.972;2024-03-08T11:03:47;45218.53;;;-143.84;91.33
6032;BME280;3044;43.232;27.972;2024-03-08T11:06:31;45220.44;;;-143.84;91.31
6032;BME280;3044;43.232;27.972;2024-03-08T11:09:10;45214.72;;;-143.84;91.15
6032;BME280;3044;43.232;27.972;2024-03-08T11:11:42;45218.53;;;-143.84;90.92
6032;BME280;3044;43.232;27.972;2024-03-08T11:14:45;45216.63;;;-143.84;91.00
6032;BME280;3044;43.232;27.972;2024-03-08T11:17:14;45233.78;;;-143.84;90.73
6032;BME280;3044;43.232;27.972;2024-03-08T11:19:46;45210.94;;;-143.84;90.89
6032;BME280;3044;43.232;27.972;2024-03-08T11:22:27;45228.06;;;-143.84;91.07
6032;BME280;3044;43.232;27.972;2024-03-08T11:24:58;45228.06;;;-143.84;90.20
6032;BME280;3044;43.232;27.972;2024-03-08T11:27:29;45210.94;;;-143.84;90.95
6032;BME280;3044;43.232;27.972;2024-03-08T11:30:01;45220.44;;;-143.84;90.14
6032;BME280;3044;43.232;27.972;2024-03-08T11:32:36;45207.13;;;-143.84;90.38
6032;BME280;3044;43.232;27.972;2024-03-08T11:35:07;45241.41;;;-143.84;89.91
6032;BME280;3044;43.232;27.972;2024-03-08T11:37:37;45218.53;;;-143.84;89.16
6032;BME280;3044;43.232;27.972;2024-03-08T11:40:12;45214.72;;;-143.84;89.71
6032;BME280;3044;43.232;27.972;2024-03-08T11:42:44;45224.25;;;-143.84;89.19
6032;BME280;3044;43.232;27.972;2024-03-08T11:45:13;45205.22;;;-143.84;88.23
6032;BME280;3044;43.232;27.972;2024-03-08T11:47:42;45224.25;;;-143.84;88.21
6032;BME280;3044;43.232;27.972;2024-03-08T11:50:12;45222.34;;;-143.84;88.47
6032;BME280;3044;43.232;27.972;2024-03-08T11:52:40;45205.22;;;-143.84;88.12
6032;BME280;3044;43.232;27.972;2024-03-08T11:55:08;45228.06;;;-143.84;87.45
6032;BME280;3044;43.232;27.972;2024-03-08T11:57:36;45216.63;;;-143.84;87.22
6032;BME280;3044;43.232;27.972;2024-03-08T12:00:04;45207.13;;;-143.84;86.87
6032;BME280;3044;43.232;27.972;2024-03-08T12:02:33;45195.69;;;-143.84;86.62
6032;BME280;3044;43.232;27.972;2024-03-08T12:05:05;45216.63;;;-143.84;86.14
6032;BME280;3044;43.232;27.972;2024-03-08T12:07:35;45218.53;;;-143.84;85.09
6032;BME280;3044;43.232;27.972;2024-03-08T12:10:17;45199.50;;;-143.84;84.72
6032;BME280;3044;43.232;27.972;2024-03-08T12:12:45;45210.94;;;-143.84;84.00
6032;BME280;3044;43.232;27.972;2024-03-08T12:15:13;45209.03;;;-143.84;83.60
6032;BME280;3044;43.232;27.972;2024-03-08T12:17:41;45203.31;;;-143.84;83.22
6032;BME280;3044;43.232;27.972;2024-03-08T12:20:14;45239.50;;;-143.84;82.82
6032;BME280;3044;43.232;27.972;2024-03-08T12:22:42;45226.16;;;-143.84;82.04
6032;BME280;3044;43.232;27.972;2024-03-08T12:25:11;45199.50;;;-143.84;81.87
6032;BME280;3044;43.232;27.972;2024-03-08T12:27:41;45209.03;;;-143.84;82.76
6032;BME280;3044;43.232;27.972;2024-03-08T12:30:21;45210.94;;;-143.84;82.44
6032;BME280;3044;43.232;27.972;2024-03-08T12:32:53;45172.84;;;-143.84;82.58
6032;BME280;3044;43.232;27.972;2024-03-08T12:35:23;45180.47;;;-143.84;82.05
6032;BME280;3044;43.232;27.972;2024-03-08T12:37:52;45209.03;;;-143.84;82.52
6032;BME280;3044;43.232;27.972;2024-03-08T12:40:25;45203.31;;;-143.84;82.43
6032;BME280;3044;43.232;27.972;2024-03-08T12:42:55;45210.94;;;-143.84;81.95
6032;BME280;3044;43.232;27.972;2024-03-08T12:45:22;45210.94;;;-143.84;81.77
6032;BME280;3044;43.232;27.972;2024-03-08T12:47:50;45199.50;;;-143.84;81.95
6032;BME280;3044;43.232;27.972;2024-03-08T12:50:19;45212.84;;;-143.84;82.15
6032;BME280;3044;43.232;27.972;2024-03-08T12:52:46;45226.16;;;-143.84;81.83
6032;BME280;3044;43.232;27.972;2024-03-08T12:55:14;45205.22;;;-143.84;82.21
6032;BME280;3044;43.232;27.972;2024-03-08T12:57:42;45199.50;;;-143.84;82.24
6032;BME280;3044;43.232;27.972;2024-03-08T13:00:12;45212.84;;;-143.84;82.92